createdAt,value
2018-12-01T00:00:02.449Z,0.1
2018-12-01T00:15:02.889Z,0.1
2018-12-01T00:30:03.176Z,0.1
2018-12-01T00:45:02.581Z,0.1
2018-12-01T01:00:02.891Z,0.1
2018-12-01T01:15:03.209Z,0.1
2018-12-01T01:30:02.895Z,0.1
2018-12-01T01:45:03.378Z,0.2
2018-12-01T02:00:02.816Z,0.2
2018-12-01T02:15:03.146Z,0.2
2018-12-01T02:30:02.506Z,0.2
2018-12-01T02:45:02.928Z,0.2
2018-12-01T03:00:03.297Z,0.2
2018-12-01T03:15:02.733Z,0.2
2018-12-01T03:30:03.277Z,0.4
2018-12-01T03:45:02.582Z,0.4
2018-12-01T04:00:03.058Z,0.4
2018-12-01T04:15:02.483Z,0.5
2018-12-01T04:30:03.210Z,0.4
2018-12-01T04:45:02.496Z,0.3
2018-12-01T05:00:02.891Z,0.4
2018-12-01T05:15:04.397Z,0.4
2018-12-01T05:30:02.733Z,0.6
2018-12-01T05:45:03.222Z,0.4
2018-12-01T06:00:02.484Z,0.4
2018-12-01T06:15:02.922Z,0.6
2018-12-01T06:30:02.683Z,0.5
2018-12-01T06:45:03.281Z,0.7
2018-12-01T07:00:02.815Z,0.5
2018-12-01T07:15:03.142Z,0.8
2018-12-01T07:30:02.504Z,0.8
2018-12-01T07:45:02.977Z,0.8
2018-12-01T08:00:03.286Z,0.8
2018-12-01T08:15:02.527Z,0.9
2018-12-01T08:30:03.080Z,1.1
2018-12-01T08:45:02.643Z,1.3
2018-12-01T09:00:02.916Z,1.8
2018-12-01T09:15:03.353Z,1.8
2018-12-01T09:30:02.909Z,2.1
2018-12-01T09:45:03.360Z,2
2018-12-01T10:00:02.883Z,2
2018-12-01T10:15:03.384Z,2.3
2018-12-01T10:30:02.849Z,2.6
2018-12-01T10:45:03.222Z,2.9
2018-12-01T11:00:02.488Z,2.8
2018-12-01T11:15:02.767Z,2.9
2018-12-01T11:30:03.078Z,3.8
2018-12-01T11:45:02.562Z,3.8
2018-12-01T12:00:03.130Z,3.9
2018-12-01T12:15:02.641Z,3.8
2018-12-01T12:30:03.178Z,4.1
2018-12-01T12:45:02.742Z,4.2
2018-12-01T13:00:03.042Z,4.2
2018-12-01T13:15:03.367Z,4.8
2018-12-01T13:30:02.681Z,5
2018-12-01T13:45:03.170Z,4.6
2018-12-01T14:00:02.646Z,4.1
2018-12-01T14:15:03.211Z,4
2018-12-01T14:30:02.685Z,3.8
2018-12-01T14:45:02.995Z,3.7
2018-12-01T15:00:03.439Z,3
2018-12-01T15:15:02.887Z,2.8
2018-12-01T15:30:02.535Z,2.6
2018-12-01T15:45:02.896Z,2.3
2018-12-01T16:00:02.490Z,2
2018-12-01T16:15:02.957Z,2.1
2018-12-01T16:30:02.493Z,1.9
2018-12-01T16:45:02.963Z,2.1
2018-12-01T17:00:02.438Z,2.2
2018-12-01T17:15:02.767Z,1.9
2018-12-01T17:30:02.603Z,1.9
2018-12-01T17:45:02.884Z,1.7
2018-12-01T18:00:03.085Z,1.4
2018-12-01T18:15:02.485Z,1.3
2018-12-01T18:30:03.048Z,1.1
2018-12-01T18:45:02.443Z,1
2018-12-01T19:00:02.931Z,0.8
2018-12-01T19:15:03.177Z,0.7
2018-12-01T19:30:05.035Z,0.8
2018-12-01T19:45:03.087Z,0.6
2018-12-01T20:00:03.334Z,0.4
2018-12-01T20:15:02.650Z,0.4
2018-12-01T20:30:03.194Z,0.4
2018-12-01T20:45:02.485Z,0.4
2018-12-01T21:00:02.960Z,0.4
2018-12-01T21:15:03.296Z,0.4
2018-12-01T21:30:02.884Z,0.4
2018-12-01T21:45:03.380Z,0.4
2018-12-01T22:00:02.880Z,0.4
2018-12-01T22:15:03.201Z,0.3
2018-12-01T22:30:02.765Z,0.4
2018-12-01T22:45:03.026Z,0.4
2018-12-01T23:00:03.386Z,0.4
2018-12-01T23:15:02.745Z,0.4
2018-12-01T23:30:03.361Z,0.2
2018-12-01T23:45:02.815Z,0.2
